sensor_id;sensor_type;location;lat;lon;timestamp;P1;durP1;ratioP1;P2;durP2;ratioP2
1350;SDS011;669;50.206;9.998;2023-03-23T00:00:13;3.90;;;1.43;;
1350;SDS011;669;50.206;9.998;2023-03-23T00:02:40;2.70;;;1.67;;
1350;SDS011;669;50.206;9.998;2023-03-23T00:05:08;1.80;;;1.30;;
1350;SDS011;669;50.206;9.998;2023-03-23T00:07:37;7.67;;;2.47;;
1350;SDS011;669;50.206;9.998;2023-03-23T00:10:10;2.07;;;1.93;;
1350;SDS011;669;50.206;9.998;2023-03-23T00:12:37;2.13;;;1.70;;
1350;SDS011;669;50.206;9.998;2023-03-23T00:15:07;1.60;;;1.50;;
1350;SDS011;669;50.206;9.998;2023-03-23T00:17:38;1.67;;;1.37;;
1350;SDS011;669;50.206;9.998;2023-03-23T00:20:05;1.40;;;1.30;;
1350;SDS011;669;50.206;9.998;2023-03-23T00:22:35;1.57;;;1.13;;
1350;SDS011;669;50.206;9.998;2023-03-23T00:25:04;1.43;;;1.33;;
1350;SDS011;669;50.206;9.998;2023-03-23T00:27:33;1.70;;;1.60;;
1350;SDS011;669;50.206;9.998;2023-03-23T00:30:00;2.70;;;1.40;;
1350;SDS011;669;50.206;9.998;2023-03-23T00:32:27;1.37;;;1.23;;
1350;SDS011;669;50.206;9.998;2023-03-23T00:34:55;1.60;;;1.07;;
1350;SDS011;669;50.206;9.998;2023-03-23T00:37:24;4.13;;;1.50;;
1350;SDS011;669;50.206;9.998;2023-03-23T00:39:50;1.27;;;1.17;;
1350;SDS011;669;50.206;9.998;2023-03-23T00:42:23;1.00;;;0.90;;
1350;SDS011;669;50.206;9.998;2023-03-23T00:44:51;3.67;;;1.43;;
1350;SDS011;669;50.206;9.998;2023-03-23T00:47:26;1.20;;;1.10;;
1350;SDS011;669;50.206;9.998;2023-03-23T00:49:53;2.10;;;1.67;;
1350;SDS011;669;50.206;9.998;2023-03-23T00:52:22;1.50;;;1.27;;
1350;SDS011;669;50.206;9.998;2023-03-23T00:54:48;1.40;;;1.30;;
1350;SDS011;669;50.206;9.998;2023-03-23T00:57:15;1.10;;;1.10;;
1350;SDS011;669;50.206;9.998;2023-03-23T00:59:44;1.60;;;1.50;;
1350;SDS011;669;50.206;9.998;2023-03-23T01:02:11;1.13;;;1.07;;
1350;SDS011;669;50.206;9.998;2023-03-23T01:04:38;2.33;;;1.60;;
1350;SDS011;669;50.206;9.998;2023-03-23T01:07:05;1.23;;;1.13;;
1350;SDS011;669;50.206;9.998;2023-03-23T01:09:33;1.93;;;1.40;;
1350;SDS011;669;50.206;9.998;2023-03-23T01:12:01;1.30;;;1.10;;
1350;SDS011;669;50.206;9.998;2023-03-23T01:14:27;1.13;;;1.10;;
1350;SDS011;669;50.206;9.998;2023-03-23T01:16:56;2.03;;;1.70;;
1350;SDS011;669;50.206;9.998;2023-03-23T01:19:22;4.77;;;1.47;;
1350;SDS011;669;50.206;9.998;2023-03-23T01:21:49;1.00;;;1.00;;
1350;SDS011;669;50.206;9.998;2023-03-23T01:24:16;1.50;;;1.37;;
1350;SDS011;669;50.206;9.998;2023-03-23T01:26:43;4.03;;;1.33;;
1350;SDS011;669;50.206;9.998;2023-03-23T01:29:10;1.53;;;1.30;;
1350;SDS011;669;50.206;9.998;2023-03-23T01:31:37;1.80;;;1.50;;
1350;SDS011;669;50.206;9.998;2023-03-23T01:34:05;1.40;;;1.30;;
1350;SDS011;669;50.206;9.998;2023-03-23T01:36:33;4.07;;;1.40;;
1350;SDS011;669;50.206;9.998;2023-03-23T01:39:00;2.50;;;1.20;;
1350;SDS011;669;50.206;9.998;2023-03-23T01:41:29;2.60;;;1.27;;
1350;SDS011;669;50.206;9.998;2023-03-23T01:43:57;1.57;;;1.17;;
1350;SDS011;669;50.206;9.998;2023-03-23T01:46:28;1.30;;;1.20;;
1350;SDS011;669;50.206;9.998;2023-03-23T01:48:55;1.40;;;1.30;;
1350;SDS011;669;50.206;9.998;2023-03-23T01:51:26;1.20;;;1.10;;
1350;SDS011;669;50.206;9.998;2023-03-23T01:53:54;1.83;;;1.70;;
1350;SDS011;669;50.206;9.998;2023-03-23T01:56:24;2.27;;;1.27;;
1350;SDS011;669;50.206;9.998;2023-03-23T01:58:58;3.43;;;1.30;;
1350;SDS011;669;50.206;9.998;2023-03-23T02:01:25;2.03;;;1.40;;
1350;SDS011;669;50.206;9.998;2023-03-23T02:03:54;1.87;;;1.67;;
1350;SDS011;669;50.206;9.998;2023-03-23T02:06:23;4.93;;;1.30;;
1350;SDS011;669;50.206;9.998;2023-03-23T02:08:51;1.53;;;1.33;;
1350;SDS011;669;50.206;9.998;2023-03-23T02:11:19;1.53;;;1.43;;
1350;SDS011;669;50.206;9.998;2023-03-23T02:13:47;1.17;;;1.17;;
1350;SDS011;669;50.206;9.998;2023-03-23T02:16:18;1.33;;;1.23;;
1350;SDS011;669;50.206;9.998;2023-03-23T02:18:57;0.93;;;0.93;;
1350;SDS011;669;50.206;9.998;2023-03-23T02:21:41;1.37;;;1.30;;
1350;SDS011;669;50.206;9.998;2023-03-23T02:24:30;1.80;;;1.40;;
1350;SDS011;669;50.206;9.998;2023-03-23T02:27:11;1.63;;;1.53;;
1350;SDS011;669;50.206;9.998;2023-03-23T02:30:03;2.20;;;1.17;;
1350;SDS011;669;50.206;9.998;2023-03-23T02:32:40;1.47;;;1.37;;
1350;SDS011;669;50.206;9.998;2023-03-23T02:35:26;1.80;;;1.57;;
1350;SDS011;669;50.206;9.998;2023-03-23T02:37:57;1.73;;;1.63;;
1350;SDS011;669;50.206;9.998;2023-03-23T02:40:28;1.23;;;1.03;;
1350;SDS011;669;50.206;9.998;2023-03-23T02:42:59;3.03;;;1.40;;
1350;SDS011;669;50.206;9.998;2023-03-23T02:45:28;2.10;;;1.30;;
1350;SDS011;669;50.206;9.998;2023-03-23T02:47:59;1.60;;;1.30;;
1350;SDS011;669;50.206;9.998;2023-03-23T02:50:30;1.17;;;1.17;;
1350;SDS011;669;50.206;9.998;2023-03-23T02:52:58;2.30;;;1.43;;
1350;SDS011;669;50.206;9.998;2023-03-23T02:55:27;2.00;;;1.80;;
1350;SDS011;669;50.206;9.998;2023-03-23T02:57:55;0.93;;;0.93;;
1350;SDS011;669;50.206;9.998;2023-03-23T03:00:22;1.10;;;1.00;;
1350;SDS011;669;50.206;9.998;2023-03-23T03:02:50;1.73;;;1.63;;
1350;SDS011;669;50.206;9.998;2023-03-23T03:05:26;1.60;;;1.30;;
1350;SDS011;669;50.206;9.998;2023-03-23T03:08:07;2.80;;;1.60;;
1350;SDS011;669;50.206;9.998;2023-03-23T03:10:42;2.00;;;1.53;;
1350;SDS011;669;50.206;9.998;2023-03-23T03:13:14;1.27;;;1.20;;
1350;SDS011;669;50.206;9.998;2023-03-23T03:15:48;5.80;;;1.50;;
1350;SDS011;669;50.206;9.998;2023-03-23T03:18:21;1.20;;;1.10;;
1350;SDS011;669;50.206;9.998;2023-03-23T03:20:54;1.40;;;1.30;;
1350;SDS011;669;50.206;9.998;2023-03-23T03:23:24;2.30;;;1.70;;
1350;SDS011;669;50.206;9.998;2023-03-23T03:25:53;2.00;;;1.13;;
1350;SDS011;669;50.206;9.998;2023-03-23T03:28:23;3.70;;;1.70;;
1350;SDS011;669;50.206;9.998;2023-03-23T03:30:53;1.50;;;1.27;;
1350;SDS011;669;50.206;9.998;2023-03-23T03:33:22;1.47;;;1.37;;
1350;SDS011;669;50.206;9.998;2023-03-23T03:35:51;1.23;;;1.13;;
1350;SDS011;669;50.206;9.998;2023-03-23T03:38:21;1.37;;;0.90;;
1350;SDS011;669;50.206;9.998;2023-03-23T03:40:49;1.47;;;1.43;;
1350;SDS011;669;50.206;9.998;2023-03-23T03:43:16;1.43;;;1.30;;
1350;SDS011;669;50.206;9.998;2023-03-23T03:45:43;1.40;;;1.30;;
1350;SDS011;669;50.206;9.998;2023-03-23T03:48:10;1.00;;;0.90;;
1350;SDS011;669;50.206;9.998;2023-03-23T03:50:38;1.63;;;1.50;;
1350;SDS011;669;50.206;9.998;2023-03-23T03:53:05;1.90;;;1.03;;
1350;SDS011;669;50.206;9.998;2023-03-23T03:55:33;2.50;;;1.17;;
1350;SDS011;669;50.206;9.998;2023-03-23T03:58:04;1.50;;;1.20;;
1350;SDS011;669;50.206;9.998;2023-03-23T04:00:32;1.37;;;1.20;;
1350;SDS011;669;50.206;9.998;2023-03-23T04:02:59;1.33;;;1.23;;
1350;SDS011;669;50.206;9.998;2023-03-23T04:05:26;2.13;;;1.60;;
1350;SDS011;669;50.206;9.998;2023-03-23T04:07:54;0.93;;;0.93;;
1350;SDS011;669;50.206;9.998;2023-03-23T04:10:27;1.43;;;1.23;;
1350;SDS011;669;50.206;9.998;2023-03-23T04:12:55;2.13;;;1.33;;
1350;SDS011;669;50.206;9.998;2023-03-23T04:15:23;1.37;;;1.27;;
1350;SDS011;669;50.206;9.998;2023-03-23T04:17:50;2.57;;;1.27;;
1350;SDS011;669;50.206;9.998;2023-03-23T04:20:17;1.23;;;0.90;;
1350;SDS011;669;50.206;9.998;2023-03-23T04:22:45;1.03;;;1.03;;
1350;SDS011;669;50.206;9.998;2023-03-23T04:25:14;1.27;;;1.17;;
1350;SDS011;669;50.206;9.998;2023-03-23T04:27:42;1.27;;;1.13;;
1350;SDS011;669;50.206;9.998;2023-03-23T04:30:13;1.10;;;1.03;;
1350;SDS011;669;50.206;9.998;2023-03-23T04:32:40;1.00;;;0.90;;
1350;SDS011;669;50.206;9.998;2023-03-23T04:35:08;1.83;;;1.23;;
1350;SDS011;669;50.206;9.998;2023-03-23T04:37:37;1.10;;;1.00;;
1350;SDS011;669;50.206;9.998;2023-03-23T04:40:06;1.60;;;1.17;;
1350;SDS011;669;50.206;9.998;2023-03-23T04:42:36;1.43;;;1.30;;
1350;SDS011;669;50.206;9.998;2023-03-23T04:45:05;1.13;;;1.03;;
1350;SDS011;669;50.206;9.998;2023-03-23T04:47:36;3.87;;;1.50;;
1350;SDS011;669;50.206;9.998;2023-03-23T04:50:06;1.40;;;1.30;;
1350;SDS011;669;50.206;9.998;2023-03-23T04:52:35;1.40;;;1.30;;
1350;SDS011;669;50.206;9.998;2023-03-23T04:55:06;1.90;;;1.30;;
1350;SDS011;669;50.206;9.998;2023-03-23T04:57:34;1.53;;;1.17;;
1350;SDS011;669;50.206;9.998;2023-03-23T05:00:01;2.10;;;1.10;;
1350;SDS011;669;50.206;9.998;2023-03-23T05:02:34;1.77;;;1.40;;
1350;SDS011;669;50.206;9.998;2023-03-23T05:05:04;2.37;;;1.73;;
1350;SDS011;669;50.206;9.998;2023-03-23T05:07:32;1.57;;;1.40;;
1350;SDS011;669;50.206;9.998;2023-03-23T05:09:59;1.07;;;0.97;;
1350;SDS011;669;50.206;9.998;2023-03-23T05:12:25;1.37;;;1.10;;
1350;SDS011;669;50.206;9.998;2023-03-23T05:14:52;1.70;;;1.07;;
1350;SDS011;669;50.206;9.998;2023-03-23T05:17:19;1.37;;;1.27;;
1350;SDS011;669;50.206;9.998;2023-03-23T05:19:51;1.30;;;1.20;;
1350;SDS011;669;50.206;9.998;2023-03-23T05:22:18;1.23;;;1.20;;
1350;SDS011;669;50.206;9.998;2023-03-23T05:24:46;1.30;;;1.10;;
1350;SDS011;669;50.206;9.998;2023-03-23T05:27:13;1.73;;;1.40;;
1350;SDS011;669;50.206;9.998;2023-03-23T05:29:42;1.60;;;1.50;;
1350;SDS011;669;50.206;9.998;2023-03-23T05:32:11;1.70;;;1.17;;
1350;SDS011;669;50.206;9.998;2023-03-23T05:34:37;1.77;;;1.20;;
1350;SDS011;669;50.206;9.998;2023-03-23T05:37:06;1.30;;;1.20;;
1350;SDS011;669;50.206;9.998;2023-03-23T05:39:34;1.40;;;1.10;;
1350;SDS011;669;50.206;9.998;2023-03-23T05:42:01;1.10;;;1.10;;
1350;SDS011;669;50.206;9.998;2023-03-23T05:44:29;1.33;;;1.33;;
1350;SDS011;669;50.206;9.998;2023-03-23T05:46:56;1.60;;;0.97;;
1350;SDS011;669;50.206;9.998;2023-03-23T05:49:23;0.90;;;0.90;;
1350;SDS011;669;50.206;9.998;2023-03-23T05:51:51;1.60;;;1.50;;
1350;SDS011;669;50.206;9.998;2023-03-23T05:54:19;2.77;;;1.83;;
1350;SDS011;669;50.206;9.998;2023-03-23T05:56:47;1.53;;;1.43;;
1350;SDS011;669;50.206;9.998;2023-03-23T05:59:14;1.27;;;1.20;;
1350;SDS011;669;50.206;9.998;2023-03-23T06:01:41;1.40;;;1.30;;
1350;SDS011;669;50.206;9.998;2023-03-23T06:04:08;2.60;;;1.83;;
1350;SDS011;669;50.206;9.998;2023-03-23T06:06:36;5.43;;;1.80;;
1350;SDS011;669;50.206;9.998;2023-03-23T06:09:03;3.87;;;2.20;;
1350;SDS011;669;50.206;9.998;2023-03-23T06:11:33;1.80;;;1.70;;
1350;SDS011;669;50.206;9.998;2023-03-23T06:14:00;3.07;;;1.97;;
1350;SDS011;669;50.206;9.998;2023-03-23T06:16:28;2.17;;;1.50;;
1350;SDS011;669;50.206;9.998;2023-03-23T06:18:54;1.70;;;1.30;;
1350;SDS011;669;50.206;9.998;2023-03-23T06:21:22;1.57;;;1.20;;
1350;SDS011;669;50.206;9.998;2023-03-23T06:23:49;1.70;;;1.57;;
1350;SDS011;669;50.206;9.998;2023-03-23T06:26:16;1.87;;;1.77;;
1350;SDS011;669;50.206;9.998;2023-03-23T06:28:46;2.17;;;1.33;;
1350;SDS011;669;50.206;9.998;2023-03-23T06:31:13;1.30;;;1.20;;
1350;SDS011;669;50.206;9.998;2023-03-23T06:33:42;2.10;;;1.63;;
1350;SDS011;669;50.206;9.998;2023-03-23T06:36:09;2.07;;;1.50;;
1350;SDS011;669;50.206;9.998;2023-03-23T06:38:37;3.23;;;1.43;;
1350;SDS011;669;50.206;9.998;2023-03-23T06:41:04;2.13;;;1.93;;
1350;SDS011;669;50.206;9.998;2023-03-23T06:43:31;1.80;;;1.57;;
1350;SDS011;669;50.206;9.998;2023-03-23T06:46:00;2.90;;;1.63;;
1350;SDS011;669;50.206;9.998;2023-03-23T06:48:26;3.63;;;1.30;;
1350;SDS011;669;50.206;9.998;2023-03-23T06:50:54;2.17;;;1.67;;
1350;SDS011;669;50.206;9.998;2023-03-23T06:53:20;1.40;;;1.30;;
1350;SDS011;669;50.206;9.998;2023-03-23T06:55:47;3.20;;;1.80;;
1350;SDS011;669;50.206;9.998;2023-03-23T06:58:14;4.80;;;1.70;;
1350;SDS011;669;50.206;9.998;2023-03-23T07:00:41;2.40;;;1.87;;
1350;SDS011;669;50.206;9.998;2023-03-23T07:03:10;2.43;;;1.70;;
1350;SDS011;669;50.206;9.998;2023-03-23T07:05:38;1.50;;;1.40;;
1350;SDS011;669;50.206;9.998;2023-03-23T07:08:05;1.10;;;1.10;;
1350;SDS011;669;50.206;9.998;2023-03-23T07:10:32;1.43;;;1.37;;
1350;SDS011;669;50.206;9.998;2023-03-23T07:12:58;1.90;;;1.80;;
1350;SDS011;669;50.206;9.998;2023-03-23T07:15:25;1.70;;;1.30;;
1350;SDS011;669;50.206;9.998;2023-03-23T07:17:52;3.27;;;1.60;;
1350;SDS011;669;50.206;9.998;2023-03-23T07:20:21;1.40;;;1.30;;
1350;SDS011;669;50.206;9.998;2023-03-23T07:22:48;3.07;;;1.90;;
1350;SDS011;669;50.206;9.998;2023-03-23T07:25:16;1.40;;;1.30;;
1350;SDS011;669;50.206;9.998;2023-03-23T07:27:44;4.83;;;1.57;;
1350;SDS011;669;50.206;9.998;2023-03-23T07:30:12;3.47;;;2.13;;
1350;SDS011;669;50.206;9.998;2023-03-23T07:32:39;1.40;;;1.30;;
1350;SDS011;669;50.206;9.998;2023-03-23T07:35:07;5.20;;;1.30;;
1350;SDS011;669;50.206;9.998;2023-03-23T07:37:35;1.30;;;1.20;;
1350;SDS011;669;50.206;9.998;2023-03-23T07:40:02;2.20;;;1.57;;
1350;SDS011;669;50.206;9.998;2023-03-23T07:42:39;3.30;;;1.90;;
1350;SDS011;669;50.206;9.998;2023-03-23T07:45:07;3.37;;;1.80;;
1350;SDS011;669;50.206;9.998;2023-03-23T07:47:34;1.50;;;1.40;;
1350;SDS011;669;50.206;9.998;2023-03-23T07:50:01;2.40;;;1.77;;
1350;SDS011;669;50.206;9.998;2023-03-23T07:52:28;1.60;;;1.50;;
1350;SDS011;669;50.206;9.998;2023-03-23T07:54:57;1.77;;;1.60;;
1350;SDS011;669;50.206;9.998;2023-03-23T07:57:26;1.40;;;1.30;;
1350;SDS011;669;50.206;9.998;2023-03-23T07:59:53;3.77;;;1.73;;
1350;SDS011;669;50.206;9.998;2023-03-23T08:02:20;1.53;;;1.40;;
1350;SDS011;669;50.206;9.998;2023-03-23T08:04:47;1.60;;;1.47;;
1350;SDS011;669;50.206;9.998;2023-03-23T08:07:14;1.67;;;1.50;;
1350;SDS011;669;50.206;9.998;2023-03-23T08:09:42;1.70;;;1.60;;
1350;SDS011;669;50.206;9.998;2023-03-23T08:12:10;3.87;;;1.90;;
1350;SDS011;669;50.206;9.998;2023-03-23T08:14:37;2.00;;;1.60;;
1350;SDS011;669;50.206;9.998;2023-03-23T08:17:05;2.63;;;1.77;;
1350;SDS011;669;50.206;9.998;2023-03-23T08:19:31;4.97;;;1.60;;
1350;SDS011;669;50.206;9.998;2023-03-23T08:22:01;1.60;;;1.50;;
1350;SDS011;669;50.206;9.998;2023-03-23T08:24:28;4.40;;;1.57;;
1350;SDS011;669;50.206;9.998;2023-03-23T08:26:55;2.77;;;1.60;;
1350;SDS011;669;50.206;9.998;2023-03-23T08:29:23;2.50;;;1.90;;
1350;SDS011;669;50.206;9.998;2023-03-23T08:31:50;1.60;;;1.50;;
1350;SDS011;669;50.206;9.998;2023-03-23T08:34:18;1.30;;;1.30;;
1350;SDS011;669;50.206;9.998;2023-03-23T08:36:45;1.40;;;1.30;;
1350;SDS011;669;50.206;9.998;2023-03-23T08:39:12;2.57;;;1.90;;
1350;SDS011;669;50.206;9.998;2023-03-23T08:41:39;4.53;;;1.43;;
1350;SDS011;669;50.206;9.998;2023-03-23T08:44:06;1.70;;;1.60;;
1350;SDS011;669;50.206;9.998;2023-03-23T08:46:35;2.00;;;1.63;;
1350;SDS011;669;50.206;9.998;2023-03-23T08:49:02;1.90;;;1.70;;
1350;SDS011;669;50.206;9.998;2023-03-23T08:51:29;1.40;;;1.30;;
1350;SDS011;669;50.206;9.998;2023-03-23T08:53:55;1.70;;;1.60;;
1350;SDS011;669;50.206;9.998;2023-03-23T08:56:22;1.33;;;1.23;;
1350;SDS011;669;50.206;9.998;2023-03-23T08:58:49;1.10;;;1.00;;
1350;SDS011;669;50.206;9.998;2023-03-23T09:01:16;1.60;;;1.43;;
1350;SDS011;669;50.206;9.998;2023-03-23T09:03:44;1.40;;;1.30;;
1350;SDS011;669;50.206;9.998;2023-03-23T09:06:11;1.70;;;1.20;;
1350;SDS011;669;50.206;9.998;2023-03-23T09:08:38;1.40;;;1.30;;
1350;SDS011;669;50.206;9.998;2023-03-23T09:11:06;3.10;;;1.60;;
1350;SDS011;669;50.206;9.998;2023-03-23T09:13:35;1.50;;;1.40;;
1350;SDS011;669;50.206;9.998;2023-03-23T09:16:03;3.50;;;1.57;;
1350;SDS011;669;50.206;9.998;2023-03-23T09:18:30;1.70;;;1.20;;
1350;SDS011;669;50.206;9.998;2023-03-23T09:20:59;2.77;;;1.67;;
1350;SDS011;669;50.206;9.998;2023-03-23T09:23:27;1.70;;;1.60;;
1350;SDS011;669;50.206;9.998;2023-03-23T09:25:54;1.90;;;1.70;;
1350;SDS011;669;50.206;9.998;2023-03-23T09:28:21;1.53;;;1.43;;
1350;SDS011;669;50.206;9.998;2023-03-23T09:30:48;2.30;;;1.40;;
1350;SDS011;669;50.206;9.998;2023-03-23T09:33:16;2.27;;;1.80;;
1350;SDS011;669;50.206;9.998;2023-03-23T09:35:43;2.20;;;1.63;;
1350;SDS011;669;50.206;9.998;2023-03-23T09:38:11;1.47;;;1.37;;
1350;SDS011;669;50.206;9.998;2023-03-23T09:40:41;2.50;;;1.43;;
1350;SDS011;669;50.206;9.998;2023-03-23T09:43:20;4.40;;;1.67;;
1350;SDS011;669;50.206;9.998;2023-03-23T09:45:55;5.30;;;1.40;;
1350;SDS011;669;50.206;9.998;2023-03-23T09:48:29;1.30;;;1.30;;
1350;SDS011;669;50.206;9.998;2023-03-23T09:51:07;1.90;;;1.80;;
1350;SDS011;669;50.206;9.998;2023-03-23T09:53:42;2.17;;;1.50;;
1350;SDS011;669;50.206;9.998;2023-03-23T09:56:12;1.50;;;1.40;;
1350;SDS011;669;50.206;9.998;2023-03-23T09:58:44;1.53;;;1.40;;
1350;SDS011;669;50.206;9.998;2023-03-23T10:01:20;1.70;;;1.60;;
1350;SDS011;669;50.206;9.998;2023-03-23T10:03:52;2.30;;;1.70;;
1350;SDS011;669;50.206;9.998;2023-03-23T10:06:26;1.40;;;1.30;;
1350;SDS011;669;50.206;9.998;2023-03-23T10:08:55;1.20;;;1.20;;
1350;SDS011;669;50.206;9.998;2023-03-23T10:11:28;2.87;;;1.87;;
1350;SDS011;669;50.206;9.998;2023-03-23T10:14:10;2.67;;;1.90;;
1350;SDS011;669;50.206;9.998;2023-03-23T10:16:49;4.03;;;2.10;;
1350;SDS011;669;50.206;9.998;2023-03-23T10:19:25;2.70;;;1.90;;
1350;SDS011;669;50.206;9.998;2023-03-23T10:21:59;1.93;;;1.70;;
1350;SDS011;669;50.206;9.998;2023-03-23T10:24:31;2.20;;;1.70;;
1350;SDS011;669;50.206;9.998;2023-03-23T10:27:04;5.70;;;1.83;;
1350;SDS011;669;50.206;9.998;2023-03-23T10:29:39;2.40;;;1.60;;
1350;SDS011;669;50.206;9.998;2023-03-23T10:32:11;1.67;;;1.20;;
1350;SDS011;669;50.206;9.998;2023-03-23T10:34:41;1.63;;;1.50;;
1350;SDS011;669;50.206;9.998;2023-03-23T10:37:12;6.97;;;1.80;;
1350;SDS011;669;50.206;9.998;2023-03-23T10:39:46;3.10;;;2.10;;
1350;SDS011;669;50.206;9.998;2023-03-23T10:42:24;1.93;;;1.47;;
1350;SDS011;669;50.206;9.998;2023-03-23T10:44:51;1.83;;;1.50;;
1350;SDS011;669;50.206;9.998;2023-03-23T10:47:19;3.33;;;1.77;;
1350;SDS011;669;50.206;9.998;2023-03-23T10:49:47;3.80;;;1.90;;
1350;SDS011;669;50.206;9.998;2023-03-23T10:52:23;1.43;;;1.30;;
1350;SDS011;669;50.206;9.998;2023-03-23T10:54:56;5.20;;;1.20;;
1350;SDS011;669;50.206;9.998;2023-03-23T10:57:27;1.30;;;1.20;;
1350;SDS011;669;50.206;9.998;2023-03-23T11:00:05;2.30;;;1.40;;
1350;SDS011;669;50.206;9.998;2023-03-23T11:02:38;0.90;;;0.90;;
1350;SDS011;669;50.206;9.998;2023-03-23T11:05:12;1.33;;;1.23;;
1350;SDS011;669;50.206;9.998;2023-03-23T11:07:47;1.20;;;1.10;;
1350;SDS011;669;50.206;9.998;2023-03-23T11:10:22;1.17;;;1.07;;
1350;SDS011;669;50.206;9.998;2023-03-23T11:12:51;1.70;;;1.40;;
1350;SDS011;669;50.206;9.998;2023-03-23T11:15:25;3.47;;;1.20;;
1350;SDS011;669;50.206;9.998;2023-03-23T11:17:55;1.80;;;1.20;;
1350;SDS011;669;50.206;9.998;2023-03-23T11:20:27;1.27;;;0.90;;
1350;SDS011;669;50.206;9.998;2023-03-23T11:22:56;1.30;;;0.90;;
1350;SDS011;669;50.206;9.998;2023-03-23T11:25:24;1.70;;;1.30;;
1350;SDS011;669;50.206;9.998;2023-03-23T11:27:51;0.97;;;0.97;;
1350;SDS011;669;50.206;9.998;2023-03-23T11:30:21;1.33;;;1.00;;
1350;SDS011;669;50.206;9.998;2023-03-23T11:32:50;2.20;;;1.23;;
1350;SDS011;669;50.206;9.998;2023-03-23T11:35:19;0.90;;;0.80;;
1350;SDS011;669;50.206;9.998;2023-03-23T11:37:48;1.37;;;1.27;;
1350;SDS011;669;50.206;9.998;2023-03-23T11:40:19;1.70;;;1.10;;
1350;SDS011;669;50.206;9.998;2023-03-23T11:42:49;1.00;;;0.80;;
1350;SDS011;669;50.206;9.998;2023-03-23T11:45:24;1.70;;;0.80;;
1350;SDS011;669;50.206;9.998;2023-03-23T11:48:00;2.77;;;1.10;;
1350;SDS011;669;50.206;9.998;2023-03-23T11:50:43;1.33;;;1.20;;
1350;SDS011;669;50.206;9.998;2023-03-23T11:53:15;1.00;;;1.00;;
1350;SDS011;669;50.206;9.998;2023-03-23T11:55:54;1.20;;;1.10;;
1350;SDS011;669;50.206;9.998;2023-03-23T11:58:28;1.73;;;1.27;;
1350;SDS011;669;50.206;9.998;2023-03-23T12:00:58;1.10;;;0.80;;
1350;SDS011;669;50.206;9.998;2023-03-23T12:06:24;1.13;;;0.80;;
1350;SDS011;669;50.206;9.998;2023-03-23T12:09:02;1.03;;;1.03;;
1350;SDS011;669;50.206;9.998;2023-03-23T12:11:38;0.80;;;0.73;;
1350;SDS011;669;50.206;9.998;2023-03-23T12:14:20;0.73;;;0.73;;
1350;SDS011;669;50.206;9.998;2023-03-23T12:16:59;1.23;;;0.77;;
1350;SDS011;669;50.206;9.998;2023-03-23T12:19:35;1.40;;;1.27;;
1350;SDS011;669;50.206;9.998;2023-03-23T12:22:09;1.20;;;1.00;;
1350;SDS011;669;50.206;9.998;2023-03-23T12:24:48;0.80;;;0.80;;
1350;SDS011;669;50.206;9.998;2023-03-23T12:27:24;1.93;;;1.20;;
1350;SDS011;669;50.206;9.998;2023-03-23T12:30:00;0.83;;;0.83;;
1350;SDS011;669;50.206;9.998;2023-03-23T12:32:43;0.90;;;0.90;;
1350;SDS011;669;50.206;9.998;2023-03-23T12:35:31;0.80;;;0.80;;
1350;SDS011;669;50.206;9.998;2023-03-23T12:38:07;1.50;;;1.40;;
1350;SDS011;669;50.206;9.998;2023-03-23T12:40:45;1.80;;;1.20;;
1350;SDS011;669;50.206;9.998;2023-03-23T12:43:26;1.30;;;1.20;;
1350;SDS011;669;50.206;9.998;2023-03-23T12:46:05;1.27;;;1.10;;
1350;SDS011;669;50.206;9.998;2023-03-23T12:48:40;1.70;;;1.20;;
1350;SDS011;669;50.206;9.998;2023-03-23T12:51:12;2.03;;;1.20;;
1350;SDS011;669;50.206;9.998;2023-03-23T12:53:46;0.63;;;0.63;;
1350;SDS011;669;50.206;9.998;2023-03-23T12:56:19;1.03;;;0.80;;
1350;SDS011;669;50.206;9.998;2023-03-23T12:58:50;1.40;;;1.30;;
1350;SDS011;669;50.206;9.998;2023-03-23T13:01:23;1.83;;;1.00;;
1350;SDS011;669;50.206;9.998;2023-03-23T13:03:55;0.57;;;0.57;;
1350;SDS011;669;50.206;9.998;2023-03-23T13:06:26;0.87;;;0.70;;
1350;SDS011;669;50.206;9.998;2023-03-23T13:08:56;4.43;;;1.20;;
1350;SDS011;669;50.206;9.998;2023-03-23T13:11:30;0.70;;;0.70;;
1350;SDS011;669;50.206;9.998;2023-03-23T13:14:01;0.63;;;0.63;;
1350;SDS011;669;50.206;9.998;2023-03-23T13:16:46;0.70;;;0.67;;
1350;SDS011;669;50.206;9.998;2023-03-23T13:19:19;0.90;;;0.90;;
1350;SDS011;669;50.206;9.998;2023-03-23T13:21:53;1.60;;;0.60;;
1350;SDS011;669;50.206;9.998;2023-03-23T13:24:29;0.93;;;0.90;;
1350;SDS011;669;50.206;9.998;2023-03-23T13:27:00;4.83;;;1.00;;
1350;SDS011;669;50.206;9.998;2023-03-23T13:29:27;0.57;;;0.57;;
1350;SDS011;669;50.206;9.998;2023-03-23T13:32:05;0.77;;;0.77;;
1350;SDS011;669;50.206;9.998;2023-03-23T13:34:36;1.37;;;1.03;;
1350;SDS011;669;50.206;9.998;2023-03-23T13:37:06;0.70;;;0.70;;
1350;SDS011;669;50.206;9.998;2023-03-23T13:39:37;2.33;;;1.13;;
1350;SDS011;669;50.206;9.998;2023-03-23T13:42:19;0.80;;;0.70;;
1350;SDS011;669;50.206;9.998;2023-03-23T13:44:55;1.47;;;0.90;;
1350;SDS011;669;50.206;9.998;2023-03-23T13:47:37;0.80;;;0.80;;
1350;SDS011;669;50.206;9.998;2023-03-23T13:50:11;1.40;;;0.70;;
1350;SDS011;669;50.206;9.998;2023-03-23T13:52:46;0.90;;;0.90;;
1350;SDS011;669;50.206;9.998;2023-03-23T13:55:19;1.03;;;0.80;;
1350;SDS011;669;50.206;9.998;2023-03-23T13:57:55;3.77;;;0.67;;
1350;SDS011;669;50.206;9.998;2023-03-23T14:00:34;4.17;;;0.83;;
1350;SDS011;669;50.206;9.998;2023-03-23T14:03:12;2.03;;;0.73;;
1350;SDS011;669;50.206;9.998;2023-03-23T14:05:42;1.33;;;0.60;;
1350;SDS011;669;50.206;9.998;2023-03-23T14:08:14;2.30;;;1.40;;
1350;SDS011;669;50.206;9.998;2023-03-23T14:10:50;1.07;;;1.07;;
1350;SDS011;669;50.206;9.998;2023-03-23T14:13:23;2.13;;;1.03;;
1350;SDS011;669;50.206;9.998;2023-03-23T14:15:56;1.30;;;1.20;;
1350;SDS011;669;50.206;9.998;2023-03-23T14:18:29;1.03;;;1.03;;
1350;SDS011;669;50.206;9.998;2023-03-23T14:20:58;2.60;;;0.97;;
1350;SDS011;669;50.206;9.998;2023-03-23T14:23:26;1.87;;;1.20;;
1350;SDS011;669;50.206;9.998;2023-03-23T14:25:58;1.13;;;1.00;;
1350;SDS011;669;50.206;9.998;2023-03-23T14:28:32;1.00;;;0.90;;
1350;SDS011;669;50.206;9.998;2023-03-23T14:31:03;0.70;;;0.70;;
1350;SDS011;669;50.206;9.998;2023-03-23T14:33:32;1.13;;;1.03;;
1350;SDS011;669;50.206;9.998;2023-03-23T14:35:59;2.67;;;0.97;;
1350;SDS011;669;50.206;9.998;2023-03-23T14:38:26;1.63;;;1.07;;
1350;SDS011;669;50.206;9.998;2023-03-23T14:41:00;1.50;;;1.03;;
1350;SDS011;669;50.206;9.998;2023-03-23T14:43:29;0.80;;;0.80;;
1350;SDS011;669;50.206;9.998;2023-03-23T14:46:00;1.50;;;1.03;;
1350;SDS011;669;50.206;9.998;2023-03-23T14:48:33;1.30;;;0.93;;
1350;SDS011;669;50.206;9.998;2023-03-23T14:51:02;0.70;;;0.70;;
1350;SDS011;669;50.206;9.998;2023-03-23T14:53:33;1.33;;;1.10;;
1350;SDS011;669;50.206;9.998;2023-03-23T14:56:03;2.43;;;0.73;;
1350;SDS011;669;50.206;9.998;2023-03-23T14:58:36;0.80;;;0.80;;
1350;SDS011;669;50.206;9.998;2023-03-23T15:01:04;1.07;;;0.80;;
1350;SDS011;669;50.206;9.998;2023-03-23T15:03:38;0.70;;;0.60;;
1350;SDS011;669;50.206;9.998;2023-03-23T15:06:09;1.00;;;1.00;;
1350;SDS011;669;50.206;9.998;2023-03-23T15:08:40;0.80;;;0.80;;
1350;SDS011;669;50.206;9.998;2023-03-23T15:11:08;0.70;;;0.70;;
1350;SDS011;669;50.206;9.998;2023-03-23T15:13:42;0.80;;;0.80;;
1350;SDS011;669;50.206;9.998;2023-03-23T15:16:12;1.47;;;1.00;;
1350;SDS011;669;50.206;9.998;2023-03-23T15:18:47;0.70;;;0.70;;
1350;SDS011;669;50.206;9.998;2023-03-23T15:21:26;0.60;;;0.60;;
1350;SDS011;669;50.206;9.998;2023-03-23T15:23:54;1.90;;;0.70;;
1350;SDS011;669;50.206;9.998;2023-03-23T15:26:26;1.07;;;1.00;;
1350;SDS011;669;50.206;9.998;2023-03-23T15:29:00;1.60;;;0.80;;
1350;SDS011;669;50.206;9.998;2023-03-23T15:31:30;0.90;;;0.80;;
1350;SDS011;669;50.206;9.998;2023-03-23T15:33:59;0.90;;;0.90;;
1350;SDS011;669;50.206;9.998;2023-03-23T15:36:30;0.57;;;0.57;;
1350;SDS011;669;50.206;9.998;2023-03-23T15:38:58;0.77;;;0.77;;
1350;SDS011;669;50.206;9.998;2023-03-23T15:41:26;0.57;;;0.57;;
1350;SDS011;669;50.206;9.998;2023-03-23T15:43:54;1.00;;;1.00;;
1350;SDS011;669;50.206;9.998;2023-03-23T15:46:24;1.87;;;0.50;;
1350;SDS011;669;50.206;9.998;2023-03-23T15:48:53;0.63;;;0.63;;
1350;SDS011;669;50.206;9.998;2023-03-23T15:51:30;2.17;;;0.93;;